Time;durP1;ratioP1;P1;durP2;ratioP2;P2;SDS_P1;SDS_P2;PMS_P1;PMS_P2;Temp;Humidity;BMP_temperature;BMP_pressure;BME280_temperature;BME280_humidity;BME280_pressure;Samples;Min_cycle;Max_cycle;Signal;HPM_P1;HPM_P2
2023/05/26 00:01:59;;;;;;;7.07;1.83;;;;;;;;;;4943808;28;98692;-83
2023/05/26 00:04:26;;;;;;;6.50;1.65;;;;;;;;;;4949267;28;99271;-82
2023/05/26 00:06:55;;;;;;;7.53;1.90;;;;;;;;;;4947260;28;100221;-82
2023/05/26 00:09:21;;;;;;;7.32;1.80;;;;;;;;;;4949456;28;99082;-83
2023/05/26 00:11:48;;;;;;;7.05;2.05;;;;;;;;;;4957408;28;100187;-82
2023/05/26 00:14:15;;;;;;;7.07;1.92;;;;;;;;;;4948774;28;99394;-82
2023/05/26 00:16:43;;;;;;;6.18;1.50;;;;;;;;;;4974696;28;98581;-81
2023/05/26 00:19:11;;;;;;;7.03;1.70;;;;;;;;;;4974709;28;101991;-83
2023/05/26 00:21:41;;;;;;;8.02;1.77;;;;;;;;;;4966538;28;105778;-81
2023/05/26 00:24:07;;;;;;;7.38;1.75;;;;;;;;;;4974702;28;99374;-83
2023/05/26 00:26:34;;;;;;;7.05;1.80;;;;;;;;;;4974758;28;98611;-83
2023/05/26 00:29:01;;;;;;;7.00;1.58;;;;;;;;;;4935678;28;98745;-84
2023/05/26 00:31:29;;;;;;;7.07;1.58;;;;;;;;;;4966063;28;101581;-82
2023/05/26 00:33:56;;;;;;;7.78;1.85;;;;;;;;;;4959945;28;99280;-82
2023/05/26 00:36:23;;;;;;;6.07;1.73;;;;;;;;;;4962282;28;98245;-82
2023/05/26 00:38:49;;;;;;;7.32;1.77;;;;;;;;;;4967107;28;99155;-82
2023/05/26 00:41:16;;;;;;;6.20;1.50;;;;;;;;;;4967678;28;98581;-83
2023/05/26 00:43:42;;;;;;;6.43;1.63;;;;;;;;;;4966868;28;99279;-84
2023/05/26 00:46:09;;;;;;;7.93;1.92;;;;;;;;;;4965837;28;101934;-82
2023/05/26 00:48:36;;;;;;;8.18;1.75;;;;;;;;;;4967591;28;98521;-82
2023/05/26 00:51:03;;;;;;;6.45;1.60;;;;;;;;;;4957468;28;101767;-82
2023/05/26 00:53:29;;;;;;;6.80;1.70;;;;;;;;;;4966403;28;99710;-82
2023/05/26 00:55:56;;;;;;;8.38;1.85;;;;;;;;;;4949375;28;98912;-82
2023/05/26 00:58:24;;;;;;;6.03;1.65;;;;;;;;;;4960857;28;100135;-82
2023/05/26 01:00:50;;;;;;;10.77;2.03;;;;;;;;;;4965322;28;97777;-81
2023/05/26 01:03:18;;;;;;;7.05;1.58;;;;;;;;;;4966648;28;98848;-81
2023/05/26 01:05:45;;;;;;;6.75;1.63;;;;;;;;;;4963358;28;100352;-81
2023/05/26 01:08:16;;;;;;;6.40;1.83;;;;;;;;;;4964389;28;99644;-82
2023/05/26 01:10:42;;;;;;;7.03;1.80;;;;;;;;;;4955425;28;99536;-82
2023/05/26 01:13:12;;;;;;;6.63;1.80;;;;;;;;;;4971468;28;101746;-82
2023/05/26 01:15:42;;;;;;;7.95;1.90;;;;;;;;;;4968666;28;99363;-82
2023/05/26 01:18:13;;;;;;;6.30;1.42;;;;;;;;;;4967657;28;99255;-81
2023/05/26 01:20:43;;;;;;;6.55;1.80;;;;;;;;;;4969376;28;99141;-81
2023/05/26 01:23:19;;;;;;;7.70;1.80;;;;;;;;;;4953735;28;101718;-83
2023/05/26 01:25:48;;;;;;;7.28;1.83;;;;;;;;;;4957575;28;98408;-83
2023/05/26 01:28:21;;;;;;;5.45;1.45;;;;;;;;;;4966956;28;99012;-81
2023/05/26 01:30:49;;;;;;;8.10;1.85;;;;;;;;;;4964938;28;106054;-83
2023/05/26 01:33:15;;;;;;;7.30;1.52;;;;;;;;;;4966148;28;99774;-83
2023/05/26 01:35:42;;;;;;;7.45;1.50;;;;;;;;;;4964781;28;98831;-83
2023/05/26 01:38:10;;;;;;;5.90;1.40;;;;;;;;;;4965535;28;100423;-82
2023/05/26 01:40:38;;;;;;;6.45;1.60;;;;;;;;;;4966269;28;99645;-83
2023/05/26 01:43:05;;;;;;;7.03;1.65;;;;;;;;;;4970781;28;98550;-81
2023/05/26 01:45:43;;;;;;;5.90;1.48;;;;;;;;;;4966055;28;100207;-82
2023/05/26 01:48:11;;;;;;;5.72;1.65;;;;;;;;;;4970135;28;98636;-82
2023/05/26 01:50:42;;;;;;;5.88;1.63;;;;;;;;;;4966995;28;98451;-82
2023/05/26 01:53:12;;;;;;;7.15;1.70;;;;;;;;;;4953378;28;101994;-82
2023/05/26 01:55:41;;;;;;;7.57;1.63;;;;;;;;;;4956185;28;99325;-83
2023/05/26 01:58:07;;;;;;;;;;;;;;;;;;4945084;28;99916;-82
2023/05/26 02:00:44;;;;;;;6.10;1.33;;;;;;;;;;4945989;28;101301;-81
2023/05/26 02:03:11;;;;;;;6.25;1.52;;;;;;;;;;4934604;28;98678;-82
2023/05/26 02:05:39;;;;;;;7.90;1.90;;;;;;;;;;4947433;28;101782;-81
2023/05/26 02:08:06;;;;;;;5.88;1.60;;;;;;;;;;4946141;28;98695;-82
2023/05/26 02:10:32;;;;;;;5.72;1.73;;;;;;;;;;4944201;28;101987;-82
2023/05/26 02:12:59;;;;;;;6.82;1.77;;;;;;;;;;4945727;28;104054;-81
2023/05/26 02:15:26;;;;;;;5.78;1.48;;;;;;;;;;4945027;28;98287;-83
2023/05/26 02:17:57;;;;;;;6.97;1.80;;;;;;;;;;4945952;28;98687;-84
2023/05/26 02:20:24;;;;;;;5.82;1.52;;;;;;;;;;4944360;28;102231;-82
2023/05/26 02:22:51;;;;;;;;;;;;;;;;;;4943805;28;99418;-82
2023/05/26 02:25:18;;;;;;;5.50;1.52;;;;;;;;;;4946874;28;126725;-83
2023/05/26 02:27:44;;;;;;;7.90;1.77;;;;;;;;;;4948956;28;99190;-82
2023/05/26 02:30:11;;;;;;;7.82;1.90;;;;;;;;;;4946679;28;99695;-83
2023/05/26 02:32:37;;;;;;;6.28;1.70;;;;;;;;;;4943466;28;101702;-82
2023/05/26 02:35:04;;;;;;;5.82;1.83;;;;;;;;;;4945502;28;99726;-82
2023/05/26 02:37:31;;;;;;;8.10;1.90;;;;;;;;;;4928437;28;99134;-83
2023/05/26 02:39:58;;;;;;;6.70;1.67;;;;;;;;;;4944461;28;105205;-83
2023/05/26 02:42:25;;;;;;;4.55;1.40;;;;;;;;;;4945883;28;98648;-83
2023/05/26 02:44:52;;;;;;;6.45;1.85;;;;;;;;;;4943854;28;99952;-83
2023/05/26 02:47:18;;;;;;;6.22;1.60;;;;;;;;;;4945359;28;100280;-82
2023/05/26 02:49:46;;;;;;;6.43;1.60;;;;;;;;;;4949860;28;98559;-83
2023/05/26 02:52:12;;;;;;;6.57;1.55;;;;;;;;;;4945899;28;99122;-83
2023/05/26 02:54:39;;;;;;;6.22;1.90;;;;;;;;;;4945754;28;99060;-82
2023/05/26 02:57:06;;;;;;;5.80;1.40;;;;;;;;;;4946813;28;98815;-83
2023/05/26 02:59:32;;;;;;;6.50;1.70;;;;;;;;;;4958951;28;99197;-82
2023/05/26 03:01:59;;;;;;;7.00;1.70;;;;;;;;;;4970630;28;98626;-82
2023/05/26 03:04:26;;;;;;;7.05;1.85;;;;;;;;;;4966184;28;100301;-82
2023/05/26 03:06:52;;;;;;;6.97;1.60;;;;;;;;;;4965341;28;99058;-82
2023/05/26 03:09:23;;;;;;;6.22;1.65;;;;;;;;;;4964502;28;98769;-81
2023/05/26 03:11:49;;;;;;;6.20;1.75;;;;;;;;;;4948805;28;100367;-82
2023/05/26 03:14:16;;;;;;;7.85;1.80;;;;;;;;;;4963072;28;98623;-81
2023/05/26 03:16:43;;;;;;;6.65;1.50;;;;;;;;;;4964742;28;98764;-81
2023/05/26 03:19:10;;;;;;;8.25;1.80;;;;;;;;;;4964912;28;99044;-81
2023/05/26 03:21:37;;;;;;;5.10;1.60;;;;;;;;;;4963626;28;99464;-81
2023/05/26 03:24:15;;;;;;;6.20;1.30;;;;;;;;;;4964121;28;101209;-82
2023/05/26 03:26:42;;;;;;;6.57;1.70;;;;;;;;;;4966095;28;101441;-82
2023/05/26 03:29:09;;;;;;;;;;;;;;;;;;4971171;28;100087;-82
2023/05/26 03:31:36;;;;;;;5.95;1.80;;;;;;;;;;4975884;28;113074;-82
2023/05/26 03:34:02;;;;;;;6.55;1.65;;;;;;;;;;4971388;28;98540;-83
2023/05/26 03:36:29;;;;;;;6.20;1.70;;;;;;;;;;4969762;28;101341;-82
2023/05/26 03:39:06;;;;;;;5.78;1.50;;;;;;;;;;4959220;28;105633;-81
2023/05/26 03:41:34;;;;;;;8.50;1.90;;;;;;;;;;4969680;28;98574;-83
2023/05/26 03:44:00;;;;;;;6.50;1.52;;;;;;;;;;4969854;28;101830;-82
2023/05/26 03:46:27;;;;;;;8.38;1.80;;;;;;;;;;4969476;28;101910;-81
2023/05/26 03:48:54;;;;;;;8.52;1.85;;;;;;;;;;4969151;28;98772;-81
2023/05/26 03:51:21;;;;;;;7.13;1.65;;;;;;;;;;4969655;28;101221;-82
2023/05/26 03:53:48;;;;;;;6.82;1.67;;;;;;;;;;4966085;28;101259;-82
2023/05/26 03:56:14;;;;;;;6.50;1.60;;;;;;;;;;4969476;28;100726;-82
2023/05/26 03:58:42;;;;;;;6.55;1.65;;;;;;;;;;4961543;28;101561;-81
2023/05/26 04:01:09;;;;;;;5.95;1.50;;;;;;;;;;4969223;28;99480;-82
2023/05/26 04:03:35;;;;;;;6.60;1.65;;;;;;;;;;4951498;28;101059;-82
2023/05/26 04:06:04;;;;;;;6.32;1.95;;;;;;;;;;4950284;28;102014;-81
2023/05/26 04:08:31;;;;;;;;;;;;;;;;;;4956955;28;98576;-83
2023/05/26 04:10:57;;;;;;;5.30;1.40;;;;;;;;;;4985321;28;101072;-82
2023/05/26 04:13:24;;;;;;;5.95;1.40;;;;;;;;;;4968594;28;99038;-83
2023/05/26 04:15:50;;;;;;;5.90;1.50;;;;;;;;;;4972681;28;99189;-82
2023/05/26 04:18:17;;;;;;;7.35;1.55;;;;;;;;;;4970764;28;98374;-83
2023/05/26 04:20:43;;;;;;;6.63;1.90;;;;;;;;;;4969106;28;98648;-82
2023/05/26 04:23:10;;;;;;;6.00;1.60;;;;;;;;;;4954229;28;101529;-83
2023/05/26 04:25:38;;;;;;;;;;;;;;;;;;4969760;28;100125;-83
2023/05/26 04:28:24;;;;;;;5.63;1.50;;;;;;;;;;4970290;28;98631;-83
2023/05/26 04:31:00;;;;;;;6.13;1.60;;;;;;;;;;4946637;28;105576;-82
2023/05/26 04:33:39;;;;;;;5.38;1.35;;;;;;;;;;4969635;28;101737;-83
2023/05/26 04:36:24;;;;;;;5.95;1.50;;;;;;;;;;4971485;28;98546;-82
2023/05/26 04:38:51;;;;;;;7.53;1.58;;;;;;;;;;4958608;28;102040;-82
2023/05/26 04:41:18;;;;;;;7.50;1.60;;;;;;;;;;4968029;28;98671;-83
2023/05/26 04:43:45;;;;;;;6.25;1.80;;;;;;;;;;4956876;28;100296;-82
2023/05/26 04:46:13;;;;;;;6.45;1.67;;;;;;;;;;4930633;28;102224;-82
2023/05/26 04:48:39;;;;;;;;;;;;;;;;;;4949745;28;99027;-82
2023/05/26 04:51:07;;;;;;;7.82;1.60;;;;;;;;;;4951900;28;99940;-83
2023/05/26 04:53:34;;;;;;;5.90;1.50;;;;;;;;;;4956417;28;101361;-83
2023/05/26 04:56:02;;;;;;;7.40;1.77;;;;;;;;;;4966865;28;98706;-81
2023/05/26 04:58:32;;;;;;;6.22;1.70;;;;;;;;;;4970968;28;100195;-82
2023/05/26 05:01:02;;;;;;;6.93;1.55;;;;;;;;;;4962987;28;98485;-81
2023/05/26 05:03:53;;;;;;;7.72;1.80;;;;;;;;;;4973490;28;99243;-81
2023/05/26 05:06:25;;;;;;;4.70;1.40;;;;;;;;;;4958413;28;101604;-82
2023/05/26 05:08:53;;;;;;;7.53;1.70;;;;;;;;;;4975593;28;98290;-83
2023/05/26 05:11:19;;;;;;;5.60;1.80;;;;;;;;;;4949967;28;99453;-83
2023/05/26 05:13:46;;;;;;;6.65;1.45;;;;;;;;;;4936284;28;101989;-84
2023/05/26 05:16:13;;;;;;;5.40;1.48;;;;;;;;;;4960387;28;99443;-83
2023/05/26 05:18:40;;;;;;;5.90;1.67;;;;;;;;;;4969221;28;102530;-83
2023/05/26 05:21:07;;;;;;;6.03;1.40;;;;;;;;;;4972354;28;99413;-83
2023/05/26 05:23:34;;;;;;;7.00;1.55;;;;;;;;;;4961531;28;101206;-83
2023/05/26 05:26:03;;;;;;;6.03;1.50;;;;;;;;;;4961265;28;101398;-83
2023/05/26 05:28:31;;;;;;;5.43;1.42;;;;;;;;;;4966002;28;98651;-82
2023/05/26 05:31:03;;;;;;;8.15;1.58;;;;;;;;;;4954850;28;106715;-82
2023/05/26 05:33:31;;;;;;;6.00;1.60;;;;;;;;;;4952480;28;98488;-81
2023/05/26 05:35:58;;;;;;;5.47;1.40;;;;;;;;;;4943144;28;99247;-82
2023/05/26 05:38:25;;;;;;;4.32;1.30;;;;;;;;;;4945383;28;100450;-83
2023/05/26 05:40:52;;;;;;;7.80;1.50;;;;;;;;;;4945859;28;102820;-83
2023/05/26 05:43:18;;;;;;;5.88;1.63;;;;;;;;;;4953431;28;98935;-83
2023/05/26 05:45:45;;;;;;;5.50;1.33;;;;;;;;;;4952889;28;101246;-83
2023/05/26 05:48:36;;;;;;;5.90;1.52;;;;;;;;;;4955626;28;98840;-82
2023/05/26 05:51:08;;;;;;;6.55;1.67;;;;;;;;;;4960782;28;100278;-83
2023/05/26 05:53:35;;;;;;;7.13;1.70;;;;;;;;;;4963630;28;100899;-83
2023/05/26 05:56:02;;;;;;;6.40;1.58;;;;;;;;;;4959786;28;98500;-82
2023/05/26 05:58:30;;;;;;;6.70;1.40;;;;;;;;;;4958017;28;100302;-82
2023/05/26 06:00:57;;;;;;;7.13;1.50;;;;;;;;;;4963607;28;99212;-82
2023/05/26 06:03:24;;;;;;;7.35;1.70;;;;;;;;;;4964474;28;98720;-83
2023/05/26 06:05:52;;;;;;;6.45;1.58;;;;;;;;;;4961242;28;100652;-83
2023/05/26 06:08:18;;;;;;;6.18;1.70;;;;;;;;;;4958950;28;98510;-81
2023/05/26 06:10:45;;;;;;;6.50;1.60;;;;;;;;;;4959302;28;98467;-83
2023/05/26 06:13:12;;;;;;;5.20;1.40;;;;;;;;;;4961015;28;102295;-83
2023/05/26 06:15:39;;;;;;;6.65;1.48;;;;;;;;;;4977770;28;98516;-83
2023/05/26 06:18:07;;;;;;;6.10;1.50;;;;;;;;;;4980861;28;98637;-81
2023/05/26 06:20:34;;;;;;;5.45;1.50;;;;;;;;;;4977969;28;99010;-81
2023/05/26 06:23:01;;;;;;;6.25;1.60;;;;;;;;;;4974317;28;98594;-83
2023/05/26 06:25:27;;;;;;;6.88;1.70;;;;;;;;;;4941543;28;99461;-84
2023/05/26 06:27:54;;;;;;;8.05;1.80;;;;;;;;;;4958905;28;100972;-84
2023/05/26 06:30:21;;;;;;;7.68;1.60;;;;;;;;;;4955096;28;100271;-83
2023/05/26 06:32:55;;;;;;;5.85;1.50;;;;;;;;;;4936773;28;99378;-81
2023/05/26 06:35:23;;;;;;;6.95;1.80;;;;;;;;;;4939598;28;98543;-84
2023/05/26 06:37:50;;;;;;;7.22;1.70;;;;;;;;;;4953707;28;101471;-83
2023/05/26 06:40:16;;;;;;;8.20;1.70;;;;;;;;;;4952581;28;100102;-83
2023/05/26 06:42:43;;;;;;;5.25;1.45;;;;;;;;;;4952621;28;98814;-83
2023/05/26 06:45:10;;;;;;;6.05;1.67;;;;;;;;;;4939902;28;100820;-82
2023/05/26 06:47:40;;;;;;;5.07;1.63;;;;;;;;;;4956430;28;104547;-81
2023/05/26 06:50:14;;;;;;;7.25;1.63;;;;;;;;;;4959673;28;98816;-82
2023/05/26 06:52:44;;;;;;;7.05;1.70;;;;;;;;;;4951602;28;100231;-83
2023/05/26 06:55:11;;;;;;;6.85;1.80;;;;;;;;;;4955062;28;99501;-82
2023/05/26 06:57:38;;;;;;;;;;;;;;;;;;4949292;28;100910;-82
2023/05/26 07:00:05;;;;;;;9.50;1.90;;;;;;;;;;4949532;28;101401;-83
2023/05/26 07:02:32;;;;;;;8.00;1.70;;;;;;;;;;4948798;28;98596;-83
2023/05/26 07:05:18;;;;;;;5.70;1.42;;;;;;;;;;4949128;28;105001;-83
2023/05/26 07:07:46;;;;;;;8.95;1.70;;;;;;;;;;4945598;28;100432;-84
2023/05/26 07:10:14;;;;;;;6.82;1.77;;;;;;;;;;4950033;28;98569;-83
2023/05/26 07:12:41;;;;;;;7.43;1.67;;;;;;;;;;4945781;28;101246;-83
2023/05/26 07:15:25;;;;;;;6.43;1.92;;;;;;;;;;4943373;28;98911;-83
2023/05/26 07:17:52;;;;;;;7.57;1.60;;;;;;;;;;4947787;28;102199;-81
2023/05/26 07:20:18;;;;;;;7.03;1.80;;;;;;;;;;4947055;28;101439;-82
2023/05/26 07:22:45;;;;;;;7.72;2.10;;;;;;;;;;4945362;28;98973;-81
2023/05/26 07:25:20;;;;;;;7.53;1.80;;;;;;;;;;4946068;28;101656;-83
2023/05/26 07:27:48;;;;;;;7.25;1.90;;;;;;;;;;4946387;28;101543;-84
2023/05/26 07:30:15;;;;;;;6.25;1.55;;;;;;;;;;4948206;28;99056;-83
2023/05/26 07:33:05;;;;;;;8.20;1.75;;;;;;;;;;4950687;28;105910;-83
2023/05/26 07:35:34;;;;;;;7.40;1.60;;;;;;;;;;4949639;28;98610;-84
2023/05/26 07:38:02;;;;;;;5.65;1.58;;;;;;;;;;4947820;28;101652;-82
2023/05/26 07:40:34;;;;;;;5.90;1.63;;;;;;;;;;4957890;28;99593;-83
2023/05/26 07:43:04;;;;;;;6.85;1.70;;;;;;;;;;4929696;28;98581;-84
2023/05/26 07:45:30;;;;;;;6.65;1.88;;;;;;;;;;4946783;28;102105;-82
2023/05/26 07:47:57;;;;;;;8.48;1.63;;;;;;;;;;4928585;28;101720;-83
2023/05/26 07:50:24;;;;;;;8.60;1.90;;;;;;;;;;4946378;28;98573;-83
2023/05/26 07:52:51;;;;;;;7.28;1.60;;;;;;;;;;4943827;28;101833;-82
2023/05/26 07:55:18;;;;;;;7.53;1.88;;;;;;;;;;4948211;28;99987;-83
2023/05/26 07:57:45;;;;;;;7.20;1.83;;;;;;;;;;4946152;28;98974;-83
2023/05/26 08:00:12;;;;;;;7.85;1.80;;;;;;;;;;4944145;28;99143;-82
2023/05/26 08:02:41;;;;;;;6.82;1.80;;;;;;;;;;4931996;28;98215;-81
2023/05/26 08:05:08;;;;;;;8.35;1.83;;;;;;;;;;4946498;28;99121;-82
2023/05/26 08:07:34;;;;;;;8.00;1.90;;;;;;;;;;4945350;28;99793;-81
2023/05/26 08:10:02;;;;;;;7.38;1.90;;;;;;;;;;4945869;28;99307;-82
2023/05/26 08:12:29;;;;;;;6.85;1.70;;;;;;;;;;4946730;28;101003;-82
2023/05/26 08:14:56;;;;;;;6.03;1.85;;;;;;;;;;4947835;28;100631;-82
2023/05/26 08:17:23;;;;;;;7.22;1.70;;;;;;;;;;4950717;28;98636;-82
2023/05/26 08:19:50;;;;;;;6.90;1.60;;;;;;;;;;4948629;28;100402;-82
2023/05/26 08:22:17;;;;;;;6.18;1.50;;;;;;;;;;4947455;28;98621;-82
2023/05/26 08:24:44;;;;;;;7.10;1.80;;;;;;;;;;4945665;28;98924;-81
2023/05/26 08:27:11;;;;;;;7.65;2.00;;;;;;;;;;4949401;28;98345;-82
2023/05/26 08:29:37;;;;;;;6.20;1.65;;;;;;;;;;4947549;28;98603;-83
2023/05/26 08:32:04;;;;;;;6.60;1.50;;;;;;;;;;4949351;28;98809;-82
2023/05/26 08:34:31;;;;;;;7.15;1.80;;;;;;;;;;4946526;28;100316;-82
2023/05/26 08:36:58;;;;;;;5.82;1.63;;;;;;;;;;4946754;28;98698;-83
2023/05/26 08:39:24;;;;;;;6.78;1.70;;;;;;;;;;4941629;28;101762;-82
2023/05/26 08:41:53;;;;;;;7.65;1.70;;;;;;;;;;4945975;28;98925;-81
2023/05/26 08:44:20;;;;;;;7.20;1.85;;;;;;;;;;4947176;28;99875;-80
2023/05/26 08:46:49;;;;;;;7.00;1.65;;;;;;;;;;4948627;28;99212;-81
2023/05/26 08:49:19;;;;;;;6.63;1.73;;;;;;;;;;4962203;28;98776;-82
2023/05/26 08:51:51;;;;;;;6.78;1.70;;;;;;;;;;4966256;28;99268;-81
2023/05/26 08:54:18;;;;;;;5.03;1.48;;;;;;;;;;4963899;28;103196;-82
2023/05/26 08:56:47;;;;;;;6.28;1.65;;;;;;;;;;4970979;28;98990;-82
2023/05/26 08:59:15;;;;;;;7.13;2.10;;;;;;;;;;4973727;28;100049;-81
2023/05/26 09:01:42;;;;;;;6.53;1.65;;;;;;;;;;4966469;28;101086;-79
2023/05/26 09:04:09;;;;;;;6.60;1.65;;;;;;;;;;4940581;28;100032;-81
2023/05/26 09:06:41;;;;;;;6.95;1.73;;;;;;;;;;4959072;28;99421;-81
2023/05/26 09:09:10;;;;;;;6.07;1.60;;;;;;;;;;4970634;28;98598;-82
2023/05/26 09:11:42;;;;;;;4.72;1.45;;;;;;;;;;4949021;28;100258;-82
2023/05/26 09:14:22;;;;;;;6.97;1.80;;;;;;;;;;4965851;28;99720;-81
2023/05/26 09:16:48;;;;;;;5.97;1.60;;;;;;;;;;4967532;28;97829;-82
2023/05/26 09:19:17;;;;;;;5.95;1.60;;;;;;;;;;4967483;28;98587;-82
2023/05/26 09:21:47;;;;;;;5.78;1.60;;;;;;;;;;4957764;28;100427;-82
2023/05/26 09:24:19;;;;;;;5.40;1.45;;;;;;;;;;4960801;28;99822;-82
2023/05/26 09:26:46;;;;;;;4.63;1.40;;;;;;;;;;4964705;28;102313;-80
2023/05/26 09:29:14;;;;;;;6.32;1.55;;;;;;;;;;4950075;28;98695;-82
2023/05/26 09:31:41;;;;;;;5.38;1.45;;;;;;;;;;4947884;28;99232;-81
2023/05/26 09:34:08;;;;;;;4.88;1.42;;;;;;;;;;4945080;28;100183;-81
2023/05/26 09:36:36;;;;;;;6.28;1.80;;;;;;;;;;4946081;28;99106;-80
2023/05/26 09:39:03;;;;;;;5.85;1.55;;;;;;;;;;4947707;28;101058;-80
2023/05/26 09:41:30;;;;;;;;;;;;;;;;;;4948299;28;99452;-82
2023/05/26 09:44:26;;;;;;;5.40;1.60;;;;;;;;;;4951614;28;98816;-81
2023/05/26 09:46:53;;;;;;;8.18;1.75;;;;;;;;;;4945076;28;100460;-81
2023/05/26 09:49:20;;;;;;;6.57;1.33;;;;;;;;;;4948949;28;99780;-81
2023/05/26 09:51:51;;;;;;;5.03;1.42;;;;;;;;;;4949349;28;98696;-82
2023/05/26 09:54:38;;;;;;;5.40;1.40;;;;;;;;;;4940232;28;99325;-82
2023/05/26 09:57:10;;;;;;;5.93;1.65;;;;;;;;;;4949574;28;98734;-80
2023/05/26 09:59:44;;;;;;;6.30;1.60;;;;;;;;;;4950135;28;99790;-80
2023/05/26 10:02:20;;;;;;;5.18;1.58;;;;;;;;;;4948729;28;101220;-81
2023/05/26 10:04:49;;;;;;;7.38;1.60;;;;;;;;;;4946712;28;98710;-80
2023/05/26 10:07:18;;;;;;;6.38;1.70;;;;;;;;;;4951820;28;101610;-80
2023/05/26 10:09:52;;;;;;;5.25;1.30;;;;;;;;;;4950519;28;98564;-81
2023/05/26 10:12:22;;;;;;;5.53;1.38;;;;;;;;;;4950889;28;100199;-80
2023/05/26 10:14:49;;;;;;;6.15;1.42;;;;;;;;;;4949001;28;101659;-81
2023/05/26 10:17:16;;;;;;;5.93;1.40;;;;;;;;;;4948847;28;98970;-81
2023/05/26 10:19:43;;;;;;;5.35;1.70;;;;;;;;;;4948760;28;100056;-81
2023/05/26 10:22:17;;;;;;;4.85;1.58;;;;;;;;;;4947431;28;100998;-81
2023/05/26 10:24:46;;;;;;;4.43;1.30;;;;;;;;;;4945210;28;98568;-81
2023/05/26 10:27:17;;;;;;;4.53;1.30;;;;;;;;;;4946988;28;98571;-81
2023/05/26 10:29:57;;;;;;;5.63;1.40;;;;;;;;;;4951996;28;99519;-82
2023/05/26 10:32:43;;;;;;;5.35;1.58;;;;;;;;;;4948312;28;99125;-80
2023/05/26 10:35:09;;;;;;;;;;;;;;;;;;4945101;28;103572;-79
2023/05/26 10:37:36;;;;;;;5.28;1.50;;;;;;;;;;4948743;28;98910;-79
2023/05/26 10:40:03;;;;;;;6.90;1.70;;;;;;;;;;4948059;28;99230;-81
2023/05/26 10:42:30;;;;;;;6.30;1.40;;;;;;;;;;4938243;28;99229;-81
2023/05/26 10:44:56;;;;;;;;;;;;;;;;;;4940679;28;99197;-81
2023/05/26 10:47:28;;;;;;;4.47;1.40;;;;;;;;;;4947148;28;122666;-81
2023/05/26 10:49:58;;;;;;;5.05;1.33;;;;;;;;;;4946759;28;100338;-81
2023/05/26 10:52:26;;;;;;;5.13;1.50;;;;;;;;;;4948516;28;98720;-81
2023/05/26 10:54:53;;;;;;;5.20;1.40;;;;;;;;;;4945547;28;100296;-80
2023/05/26 10:57:30;;;;;;;6.22;1.60;;;;;;;;;;4947921;28;97908;-81
2023/05/26 10:59:58;;;;;;;4.95;1.40;;;;;;;;;;4947608;28;100224;-81
2023/05/26 11:02:24;;;;;;;;;;;;;;;;;;4946698;28;99348;-81
2023/05/26 11:04:51;;;;;;;5.90;1.42;;;;;;;;;;4945820;28;101408;-81
2023/05/26 11:07:23;;;;;;;6.97;1.60;;;;;;;;;;4946982;28;101697;-81
2023/05/26 11:10:02;;;;;;;6.25;1.63;;;;;;;;;;4947122;28;99120;-81
2023/05/26 11:12:33;;;;;;;6.15;1.75;;;;;;;;;;4944795;28;98489;-81
2023/05/26 11:15:19;;;;;;;6.60;1.70;;;;;;;;;;4985822;28;103255;-82
2023/05/26 11:17:52;;;;;;;5.88;1.60;;;;;;;;;;4962303;28;99243;-81
2023/05/26 11:20:21;;;;;;;6.45;1.33;;;;;;;;;;4959674;28;98832;-81
2023/05/26 11:22:47;;;;;;;4.90;1.50;;;;;;;;;;4951625;28;101277;-82
2023/05/26 11:25:14;;;;;;;6.07;1.70;;;;;;;;;;4946233;28;98573;-82
2023/05/26 11:27:41;;;;;;;;;;;;;;;;;;4939039;28;98934;-82
2023/05/26 11:30:08;;;;;;;5.43;1.48;;;;;;;;;;4945327;28;100174;-81
2023/05/26 11:32:35;;;;;;;4.18;1.38;;;;;;;;;;4945811;28;98685;-81
2023/05/26 11:35:01;;;;;;;5.38;1.35;;;;;;;;;;4962873;28;98807;-81
2023/05/26 11:37:28;;;;;;;5.38;1.40;;;;;;;;;;4933546;28;98849;-82
2023/05/26 11:39:55;;;;;;;5.40;1.50;;;;;;;;;;4944296;28;99492;-82
2023/05/26 11:42:21;;;;;;;7.85;1.50;;;;;;;;;;4944691;28;99231;-82
2023/05/26 11:44:48;;;;;;;4.68;1.58;;;;;;;;;;4944640;28;98514;-81
2023/05/26 11:47:15;;;;;;;5.50;1.50;;;;;;;;;;4947002;28;98964;-82
2023/05/26 11:49:47;;;;;;;4.22;1.45;;;;;;;;;;4947598;28;99372;-82
2023/05/26 11:52:16;;;;;;;5.38;1.38;;;;;;;;;;4949647;28;98634;-81
2023/05/26 11:54:42;;;;;;;5.22;1.33;;;;;;;;;;4947496;28;99533;-81
2023/05/26 11:57:22;;;;;;;4.18;1.38;;;;;;;;;;4951644;28;99622;-82
2023/05/26 11:59:50;;;;;;;5.43;1.50;;;;;;;;;;4949564;28;98804;-81
2023/05/26 12:02:17;;;;;;;5.32;1.40;;;;;;;;;;4948975;28;99138;-81
2023/05/26 12:04:44;;;;;;;4.93;1.60;;;;;;;;;;4954195;28;98741;-81
2023/05/26 12:07:10;;;;;;;5.00;1.60;;;;;;;;;;4949916;28;102119;-80
2023/05/26 12:09:37;;;;;;;6.00;1.42;;;;;;;;;;4947947;28;99124;-81
2023/05/26 12:12:09;;;;;;;6.15;1.73;;;;;;;;;;4942904;28;97808;-81
2023/05/26 12:14:37;;;;;;;5.03;1.50;;;;;;;;;;4964756;28;99492;-80
2023/05/26 12:17:04;;;;;;;5.53;1.58;;;;;;;;;;4968234;28;99131;-80
2023/05/26 12:19:30;;;;;;;4.28;1.33;;;;;;;;;;4971062;28;99706;-81
2023/05/26 12:21:58;;;;;;;5.43;1.48;;;;;;;;;;4963785;28;99306;-81
2023/05/26 12:24:30;;;;;;;5.00;1.33;;;;;;;;;;4957960;28;98623;-81
2023/05/26 12:27:05;;;;;;;4.75;1.35;;;;;;;;;;4953562;28;100151;-80
2023/05/26 12:29:34;;;;;;;4.78;1.40;;;;;;;;;;4968448;28;100173;-81
2023/05/26 12:32:04;;;;;;;6.35;1.40;;;;;;;;;;4968005;28;98699;-80
2023/05/26 12:34:31;;;;;;;5.25;1.35;;;;;;;;;;4954396;28;99322;-81
2023/05/26 12:36:57;;;;;;;4.82;1.30;;;;;;;;;;4966843;28;98605;-81
2023/05/26 12:39:24;;;;;;;4.00;1.30;;;;;;;;;;4969089;28;98612;-81
2023/05/26 12:41:50;;;;;;;6.25;1.55;;;;;;;;;;4971841;28;98915;-79
2023/05/26 12:44:17;;;;;;;4.80;1.50;;;;;;;;;;4966265;28;99227;-82
2023/05/26 12:46:44;;;;;;;4.43;1.25;;;;;;;;;;4967007;28;101514;-82
2023/05/26 12:49:11;;;;;;;5.07;1.50;;;;;;;;;;4969027;28;100774;-81
2023/05/26 12:51:39;;;;;;;4.25;1.27;;;;;;;;;;4972227;28;98456;-82
2023/05/26 12:54:08;;;;;;;5.78;1.48;;;;;;;;;;4968462;28;99247;-80
2023/05/26 12:56:35;;;;;;;5.93;1.30;;;;;;;;;;4970713;28;100547;-79
2023/05/26 12:59:02;;;;;;;4.25;1.20;;;;;;;;;;4965628;28;98581;-81
2023/05/26 13:01:44;;;;;;;3.92;1.30;;;;;;;;;;4976614;28;98786;-81
2023/05/26 13:04:11;;;;;;;5.22;1.30;;;;;;;;;;4978084;28;99162;-80
2023/05/26 13:06:38;;;;;;;3.92;1.25;;;;;;;;;;4966331;28;99422;-80
2023/05/26 13:09:04;;;;;;;4.43;1.20;;;;;;;;;;4967173;28;99940;-80
2023/05/26 13:11:31;;;;;;;4.97;1.25;;;;;;;;;;4946090;28;98609;-82
2023/05/26 13:13:58;;;;;;;5.50;1.50;;;;;;;;;;4940774;28;99196;-81
2023/05/26 13:16:24;;;;;;;4.95;1.30;;;;;;;;;;4947742;28;99036;-82
2023/05/26 13:18:52;;;;;;;5.72;1.50;;;;;;;;;;4947208;28;98763;-82
2023/05/26 13:21:19;;;;;;;4.47;1.30;;;;;;;;;;4935769;28;98835;-82
2023/05/26 13:23:46;;;;;;;4.88;1.50;;;;;;;;;;4947609;28;100289;-82
2023/05/26 13:26:13;;;;;;;4.38;1.20;;;;;;;;;;4951825;28;98291;-82
2023/05/26 13:28:39;;;;;;;4.10;1.17;;;;;;;;;;4945806;28;100698;-81
2023/05/26 13:31:06;;;;;;;4.75;1.25;;;;;;;;;;4948356;28;98780;-82
2023/05/26 13:33:33;;;;;;;4.70;1.40;;;;;;;;;;4947610;28;99662;-82
2023/05/26 13:36:00;;;;;;;5.82;1.50;;;;;;;;;;4948833;28;101505;-82
2023/05/26 13:38:26;;;;;;;5.63;1.40;;;;;;;;;;4958369;28;98791;-82
2023/05/26 13:40:53;;;;;;;5.70;1.40;;;;;;;;;;4966565;28;101811;-82
2023/05/26 13:43:22;;;;;;;4.97;1.40;;;;;;;;;;4974232;28;99701;-82
2023/05/26 13:45:49;;;;;;;3.45;1.10;;;;;;;;;;4970629;28;98505;-81
2023/05/26 13:48:21;;;;;;;3.65;1.17;;;;;;;;;;4965263;28;102205;-81
2023/05/26 13:50:48;;;;;;;3.67;1.30;;;;;;;;;;4966486;28;97814;-80
2023/05/26 13:53:15;;;;;;;4.88;1.30;;;;;;;;;;4958445;28;98538;-81
2023/05/26 13:55:41;;;;;;;3.38;1.17;;;;;;;;;;4947252;28;99097;-81
2023/05/26 13:58:09;;;;;;;4.50;1.40;;;;;;;;;;4946827;28;99324;-82
2023/05/26 14:00:36;;;;;;;4.78;1.40;;;;;;;;;;4946723;28;100006;-80
2023/05/26 14:03:04;;;;;;;5.53;1.30;;;;;;;;;;4947658;28;99670;-80
2023/05/26 14:05:31;;;;;;;5.15;1.40;;;;;;;;;;4947913;28;98550;-82
2023/05/26 14:07:58;;;;;;;4.28;1.40;;;;;;;;;;4951289;28;99751;-81
2023/05/26 14:10:30;;;;;;;5.07;1.40;;;;;;;;;;4946777;28;98692;-81
2023/05/26 14:12:56;;;;;;;4.97;1.20;;;;;;;;;;4943711;28;99083;-81
2023/05/26 14:15:23;;;;;;;3.10;1.13;;;;;;;;;;4947616;28;98393;-82
2023/05/26 14:17:50;;;;;;;3.88;1.20;;;;;;;;;;4946833;28;98670;-82
2023/05/26 14:20:32;;;;;;;4.65;1.40;;;;;;;;;;4948838;28;101698;-80
2023/05/26 14:23:21;;;;;;;4.20;1.50;;;;;;;;;;4957135;28;104363;-80
2023/05/26 14:25:48;;;;;;;3.45;1.30;;;;;;;;;;4970009;28;98476;-80
2023/05/26 14:28:14;;;;;;;4.53;1.27;;;;;;;;;;4963591;28;98582;-80
2023/05/26 14:30:41;;;;;;;3.67;1.20;;;;;;;;;;4977479;28;98990;-80
2023/05/26 14:33:08;;;;;;;3.08;1.25;;;;;;;;;;4973662;28;98672;-80
2023/05/26 14:35:34;;;;;;;6.45;1.30;;;;;;;;;;4970706;28;99234;-80
2023/05/26 14:38:01;;;;;;;6.05;1.50;;;;;;;;;;4963731;28;98657;-80
2023/05/26 14:40:29;;;;;;;3.78;1.20;;;;;;;;;;4968224;28;100051;-80
2023/05/26 14:42:56;;;;;;;4.35;1.40;;;;;;;;;;4968960;28;100228;-82
2023/05/26 14:45:23;;;;;;;3.95;1.27;;;;;;;;;;4960049;28;99061;-80
2023/05/26 14:47:50;;;;;;;;;;;;;;;;;;4964263;28;99418;-80
2023/05/26 14:50:16;;;;;;;4.53;1.45;;;;;;;;;;4973958;28;99209;-81
2023/05/26 14:52:46;;;;;;;4.43;1.30;;;;;;;;;;4969235;28;98521;-80